Aérodrome :
LOGIN :

S'inscrire | Disclaimer

   EN    FR    IT 

 










Légende :    VFR   VFR Marginal   IFR   IFR Intensif   IFR Très Intensif
Visi : 
Plafond : 
>= 8 km
>= 3000ft
5 à 8 km
1000 à 3000 ft
1500m à 5 km
500 à 1000 ft
800 à 1500m
200 à 500 ft
< 800m
< 200 ft
Symboles :   Orages  Brouillard  Fortes neiges  Fortes précipitations  Vent > 20 kt
SIGMETs :   Divers  Orages  Givrage  Turbulence  Onde Orograph.  Cendres Volcan.







- Altitude de l'aérodrome : 290 ft
- Code IATA : LAI
- Voir les cartes d'approche


LFRO - Lannion

DERNIER METAR :
  • 152130Z AUTO 17005KT 140V210 CAVOK 08/05 Q1025

METARs EXPIRÉS :
  • 152100Z AUTO 18006KT CAVOK 09/06 Q1025
  • 152030Z AUTO 17004KT CAVOK 09/05 Q1025 NOSIG
  • 152000Z AUTO 16006KT CAVOK 09/05 Q1025 NOSIG
  • 151930Z AUTO 17005KT CAVOK 10/05 Q1025 NOSIG
  • 151900Z AUTO 17005KT CAVOK 11/06 Q1024 NOSIG

TAF TAF LFRO
Valide du 15 à 18h jusqu'au 16 à 18h UTC


151700Z 1518/1618 16010KT CAVOK
BECMG 1523/1602 2000 BR BKN006
TEMPO 1603/1607 0500 FG VV///
BECMG 1610/1612 8000 NSW BKN012
Pas de NOTAMs connus pour ce terrain.



MET'MAP, la Météo Aéronautique d'un coup d'oeil ! - Copyright ORBIFLY Décembre 2007 - Disclaimer

ORBIFLY MET'MAP TEAM :

Programmation & Développement : Alexandra Zaïnal
Conception & Développement : Baudouin d'Aumeries
Co-Programmation & Développement : Marc-Olivier Méhu
Soutien technique & logistique : Manuel Goepfert

Contact : metmap@orbifly.com




SOURCES & CREDITS :

   NOAA